createdAt,value
2022-11-16T00:01:42.045Z,63.76
2022-11-16T00:04:08.605Z,62.91
2022-11-16T00:06:35.128Z,63.30
2022-11-16T00:09:34.085Z,63.52
2022-11-16T00:12:04.648Z,64.16
2022-11-16T00:14:33.620Z,63.97
2022-11-16T00:17:00.716Z,64.58
2022-11-16T00:19:27.446Z,64.43
2022-11-16T00:21:53.913Z,64.56
2022-11-16T00:24:21.862Z,64.89
2022-11-16T00:26:49.377Z,64.56
2022-11-16T00:29:19.141Z,63.82
2022-11-16T00:31:46.104Z,63.37
2022-11-16T00:34:12.978Z,63.73
2022-11-16T00:36:39.650Z,63.44
2022-11-16T00:39:06.290Z,63.56
2022-11-16T00:41:32.760Z,63.66
2022-11-16T00:43:59.204Z,64.79
2022-11-16T00:46:25.755Z,64.78
2022-11-16T00:48:52.505Z,64.10
2022-11-16T00:51:19.007Z,63.57
2022-11-16T00:53:45.784Z,62.83
2022-11-16T00:56:12.186Z,63.31
2022-11-16T00:58:43.027Z,62.90
2022-11-16T01:01:11.037Z,62.76
2022-11-16T01:03:37.777Z,63.01
2022-11-16T01:06:05.975Z,63.04
2022-11-16T01:08:33.139Z,62.54
2022-11-16T01:11:19.998Z,62.38
2022-11-16T01:13:47.317Z,62.63
2022-11-16T01:16:17.882Z,62.65
2022-11-16T01:18:48.021Z,62.57
2022-11-16T01:21:14.489Z,62.25
2022-11-16T01:23:41.005Z,62.45
2022-11-16T01:26:07.503Z,62.38
2022-11-16T01:28:36.402Z,62.65
2022-11-16T01:31:03.400Z,62.87
2022-11-16T01:33:33.155Z,62.88
2022-11-16T01:35:59.675Z,62.73
2022-11-16T01:38:29.712Z,62.72
2022-11-16T01:40:57.231Z,62.94
2022-11-16T01:43:25.012Z,62.82
2022-11-16T01:45:53.724Z,62.42
2022-11-16T01:48:25.718Z,62.23
2022-11-16T01:50:52.226Z,62.00
2022-11-16T01:53:18.909Z,62.13
2022-11-16T01:55:50.193Z,61.71
2022-11-16T01:58:23.287Z,61.57
2022-11-16T02:00:55.920Z,61.80
2022-11-16T02:03:28.049Z,62.27
2022-11-16T02:06:10.532Z,62.42
2022-11-16T02:09:19.773Z,62.66
2022-11-16T02:13:10.895Z,62.12
2022-11-16T02:16:14.317Z,61.90
2022-11-16T02:19:09.151Z,62.39
2022-11-16T02:22:03.297Z,62.60
2022-11-16T02:24:46.969Z,62.55
2022-11-16T02:28:04.614Z,62.69
2022-11-16T02:30:31.006Z,62.43
2022-11-16T02:33:06.834Z,62.40
2022-11-16T02:35:37.865Z,62.01
2022-11-16T02:38:16.783Z,62.27
2022-11-16T02:40:46.206Z,62.39
2022-11-16T02:43:25.816Z,62.25
2022-11-16T02:45:54.962Z,62.35
2022-11-16T02:48:33.210Z,62.13
2022-11-16T02:51:00.010Z,62.08
2022-11-16T02:53:26.498Z,62.34
2022-11-16T02:55:53.589Z,62.27
2022-11-16T02:58:21.634Z,62.63
2022-11-16T03:01:01.606Z,62.75
2022-11-16T03:04:08.495Z,62.90
2022-11-16T03:06:35.863Z,63.41
2022-11-16T03:09:10.640Z,63.18
2022-11-16T03:11:58.950Z,62.59
2022-11-16T03:14:52.882Z,63.54
2022-11-16T03:17:29.318Z,63.58
2022-11-16T03:20:07.428Z,63.57
2022-11-16T03:22:42.046Z,63.55
2022-11-16T03:25:09.935Z,63.66
2022-11-16T03:28:14.855Z,63.88
2022-11-16T03:30:50.583Z,63.63
2022-11-16T03:33:56.942Z,63.77
2022-11-16T03:36:38.207Z,63.81
2022-11-16T03:39:12.086Z,63.20
2022-11-16T03:41:41.055Z,62.74
2022-11-16T03:44:08.391Z,62.55
2022-11-16T03:46:34.795Z,62.44
2022-11-16T03:49:01.783Z,62.50
2022-11-16T03:51:31.439Z,62.57
2022-11-16T03:53:57.955Z,62.66
2022-11-16T03:56:24.593Z,63.19
2022-11-16T03:58:51.075Z,63.45
2022-11-16T04:01:18.075Z,63.81
2022-11-16T04:03:45.383Z,63.46
2022-11-16T04:06:31.210Z,63.57
2022-11-16T04:09:16.939Z,63.85
2022-11-16T04:12:16.226Z,63.76
2022-11-16T04:15:01.518Z,63.85
2022-11-16T04:17:47.711Z,63.65
2022-11-16T04:20:33.517Z,63.20
2022-11-16T04:23:26.118Z,63.04
2022-11-16T04:25:52.865Z,63.50
2022-11-16T04:28:23.390Z,63.54
2022-11-16T04:31:11.723Z,63.39
2022-11-16T04:33:58.319Z,63.50
2022-11-16T04:36:44.012Z,63.02
2022-11-16T04:39:10.651Z,63.04
2022-11-16T04:41:56.297Z,62.96
2022-11-16T04:44:27.267Z,63.03
2022-11-16T04:47:08.488Z,62.56
2022-11-16T04:49:36.269Z,62.34
2022-11-16T04:52:02.956Z,62.61
2022-11-16T04:54:29.866Z,62.59
2022-11-16T04:56:56.891Z,62.47
2022-11-16T04:59:23.535Z,62.43
2022-11-16T05:02:08.793Z,62.87
2022-11-16T05:04:42.287Z,62.58
2022-11-16T05:07:11.419Z,62.51
2022-11-16T05:09:46.194Z,62.66
2022-11-16T05:12:22.203Z,62.89
2022-11-16T05:14:51.221Z,63.04
2022-11-16T05:17:18.632Z,62.92
2022-11-16T05:20:03.805Z,62.97
2022-11-16T05:22:33.595Z,63.20
2022-11-16T05:25:01.102Z,63.01
2022-11-16T05:27:28.675Z,62.68
2022-11-16T05:29:56.225Z,62.46
2022-11-16T05:32:23.905Z,62.36
2022-11-16T05:34:50.991Z,62.54
2022-11-16T05:37:18.600Z,61.88
2022-11-16T05:39:46.030Z,61.70
2022-11-16T05:42:12.750Z,61.90
2022-11-16T05:44:39.394Z,62.40
2022-11-16T05:47:09.360Z,62.52
2022-11-16T05:49:35.891Z,62.38
2022-11-16T05:52:03.038Z,62.84
2022-11-16T05:54:30.798Z,62.84
2022-11-16T05:56:57.263Z,62.96
2022-11-16T05:59:24.299Z,63.35
2022-11-16T06:01:53.376Z,63.24
2022-11-16T06:04:23.736Z,63.29
2022-11-16T06:06:50.278Z,63.28
2022-11-16T06:09:18.257Z,62.86
2022-11-16T06:11:45.653Z,62.75
2022-11-16T06:14:12.538Z,62.51
2022-11-16T06:16:39.151Z,62.10
2022-11-16T06:19:07.427Z,61.80
2022-11-16T06:21:33.895Z,62.28
2022-11-16T06:24:02.105Z,61.96
2022-11-16T06:26:29.716Z,62.17
2022-11-16T06:28:56.275Z,62.27
2022-11-16T06:31:23.222Z,62.48
2022-11-16T06:33:50.023Z,62.28
2022-11-16T06:36:20.818Z,62.47
2022-11-16T06:38:47.439Z,61.98
2022-11-16T06:41:14.510Z,62.33
2022-11-16T06:43:44.467Z,62.36
2022-11-16T06:46:11.175Z,61.90
2022-11-16T06:48:38.441Z,61.84
2022-11-16T06:51:09.723Z,61.76
2022-11-16T06:53:36.339Z,62.06
2022-11-16T06:56:03.980Z,62.29
2022-11-16T06:58:32.821Z,61.85
2022-11-16T07:01:07.643Z,62.46
2022-11-16T07:03:34.965Z,63.08
2022-11-16T07:06:08.185Z,62.93
2022-11-16T07:08:35.611Z,63.36
2022-11-16T07:11:07.009Z,63.42
2022-11-16T07:13:35.102Z,63.81
2022-11-16T07:16:07.911Z,63.62
2022-11-16T07:18:36.782Z,63.45
2022-11-16T07:21:08.518Z,63.40
2022-11-16T07:23:35.886Z,63.29
2022-11-16T07:26:03.854Z,63.00
2022-11-16T07:28:40.909Z,63.09
2022-11-16T07:31:12.105Z,63.15
2022-11-16T07:33:39.307Z,63.52
2022-11-16T07:36:17.408Z,63.66
2022-11-16T07:38:44.047Z,63.47
2022-11-16T07:41:17.232Z,63.73
2022-11-16T07:43:58.359Z,63.78
2022-11-16T07:46:46.615Z,63.76
2022-11-16T07:49:15.423Z,63.82
2022-11-16T07:51:47.692Z,63.80
2022-11-16T07:54:32.935Z,64.26
2022-11-16T07:56:59.338Z,63.90
2022-11-16T07:59:27.003Z,63.66
2022-11-16T08:01:55.049Z,63.97
2022-11-16T08:04:21.631Z,64.20
2022-11-16T08:06:51.004Z,63.96
2022-11-16T08:09:18.250Z,64.60
2022-11-16T08:11:46.540Z,64.58
2022-11-16T08:14:15.060Z,65.28
2022-11-16T08:16:42.848Z,66.54
2022-11-16T08:19:12.518Z,66.29
2022-11-16T08:21:38.998Z,66.24
2022-11-16T08:24:06.711Z,66.01
2022-11-16T08:26:35.854Z,66.17
2022-11-16T08:29:06.698Z,65.33
2022-11-16T08:31:34.898Z,65.07
2022-11-16T08:34:11.293Z,64.68
2022-11-16T08:36:40.403Z,64.68
2022-11-16T08:39:07.928Z,64.55
2022-11-16T08:41:35.413Z,63.86
2022-11-16T08:44:02.073Z,63.42
2022-11-16T08:46:29.427Z,62.83
2022-11-16T08:49:03.131Z,62.88
2022-11-16T08:51:30.133Z,63.05
2022-11-16T08:54:03.088Z,63.80
2022-11-16T08:56:30.382Z,63.76
2022-11-16T08:58:59.104Z,63.88
2022-11-16T09:01:28.490Z,64.43
2022-11-16T09:03:55.186Z,64.18
2022-11-16T09:06:22.443Z,64.17
2022-11-16T09:08:48.919Z,64.22
2022-11-16T09:11:18.525Z,64.66
2022-11-16T09:13:45.747Z,65.57
2022-11-16T09:16:15.255Z,64.87
2022-11-16T09:18:47.824Z,65.18
2022-11-16T09:21:22.736Z,65.32
2022-11-16T09:23:49.287Z,64.83
2022-11-16T09:26:18.328Z,63.78
2022-11-16T09:28:44.848Z,64.24
2022-11-16T09:31:11.321Z,64.01
2022-11-16T09:33:38.072Z,66.13
2022-11-16T09:36:07.359Z,67.68
2022-11-16T09:38:55.709Z,67.19
2022-11-16T09:41:55.948Z,66.45
2022-11-16T09:44:37.236Z,65.30
2022-11-16T09:47:03.915Z,66.07
2022-11-16T09:49:40.095Z,66.16
2022-11-16T09:52:10.614Z,65.53
2022-11-16T09:54:39.710Z,65.80
2022-11-16T09:57:12.551Z,65.08
2022-11-16T09:59:48.331Z,65.43
2022-11-16T10:02:42.731Z,64.35
2022-11-16T10:05:29.582Z,65.02
2022-11-16T10:08:06.188Z,65.35
2022-11-16T10:11:10.006Z,65.34
2022-11-16T10:13:46.729Z,65.27
2022-11-16T10:16:30.586Z,65.74
2022-11-16T10:19:04.118Z,65.67
2022-11-16T10:21:48.057Z,67.18
2022-11-16T10:24:24.888Z,65.09
2022-11-16T10:27:01.055Z,64.75
2022-11-16T10:30:07.155Z,64.59
2022-11-16T10:32:54.786Z,64.63
2022-11-16T10:35:42.437Z,64.21
2022-11-16T10:38:22.361Z,64.24
2022-11-16T10:40:55.844Z,64.10
2022-11-16T10:43:24.240Z,63.86
2022-11-16T10:46:12.228Z,64.19
2022-11-16T10:48:57.962Z,63.86
2022-11-16T10:51:24.524Z,63.89
2022-11-16T10:53:52.566Z,64.20
2022-11-16T10:56:31.905Z,65.09
2022-11-16T10:59:05.831Z,64.14
2022-11-16T11:01:57.236Z,64.90
2022-11-16T11:04:28.676Z,65.53
2022-11-16T11:06:57.948Z,66.12
2022-11-16T11:09:37.514Z,65.83
2022-11-16T11:12:49.066Z,66.40
2022-11-16T11:15:26.702Z,66.55
2022-11-16T11:18:12.995Z,65.58
2022-11-16T11:20:45.321Z,65.68
2022-11-16T11:23:16.726Z,65.75
2022-11-16T11:25:57.217Z,65.52
2022-11-16T11:28:51.280Z,64.69
2022-11-16T11:31:29.460Z,64.31
2022-11-16T11:34:24.357Z,63.54
2022-11-16T11:36:57.519Z,63.39
2022-11-16T11:39:24.107Z,63.74
2022-11-16T11:42:06.391Z,63.09
2022-11-16T11:44:49.741Z,64.11
2022-11-16T11:48:04.199Z,63.69
2022-11-16T11:51:00.204Z,63.38
2022-11-16T11:53:52.951Z,62.99
2022-11-16T11:56:19.587Z,64.20
2022-11-16T11:58:46.646Z,65.85
2022-11-16T12:01:57.095Z,65.61
2022-11-16T12:05:19.329Z,64.57
2022-11-16T12:08:14.137Z,64.26
2022-11-16T12:10:48.387Z,64.56
2022-11-16T12:13:46.901Z,64.23
2022-11-16T12:16:36.508Z,63.50
2022-11-16T12:19:18.440Z,63.34
2022-11-16T12:22:33.889Z,63.83
2022-11-16T12:25:19.489Z,64.00
2022-11-16T12:28:05.916Z,64.41
2022-11-16T12:30:34.910Z,65.06
2022-11-16T12:33:16.106Z,64.28
2022-11-16T12:36:07.424Z,63.94
2022-11-16T12:39:13.099Z,63.34
2022-11-16T12:42:15.541Z,63.23
2022-11-16T12:45:31.976Z,63.07
2022-11-16T12:48:17.040Z,63.87
2022-11-16T12:51:26.377Z,63.86
2022-11-16T12:54:48.041Z,64.53
2022-11-16T12:57:43.786Z,64.30
2022-11-16T13:00:15.205Z,64.11
2022-11-16T13:03:16.602Z,64.40
2022-11-16T13:06:07.074Z,63.98
2022-11-16T13:08:35.840Z,63.44
2022-11-16T13:11:29.311Z,63.15
2022-11-16T13:14:02.116Z,62.75
2022-11-16T13:16:28.801Z,62.50
2022-11-16T13:18:55.471Z,62.81
2022-11-16T13:22:02.860Z,63.44
2022-11-16T13:24:48.516Z,62.62
2022-11-16T13:27:35.597Z,62.48
2022-11-16T13:30:25.545Z,62.71
2022-11-16T13:33:27.440Z,62.45
2022-11-16T13:35:53.930Z,62.53
2022-11-16T13:38:51.606Z,62.54
2022-11-16T13:41:35.152Z,62.09
2022-11-16T13:44:02.970Z,61.49
2022-11-16T13:46:58.197Z,61.69
2022-11-16T13:49:37.233Z,62.05
2022-11-16T13:52:26.526Z,62.19
2022-11-16T13:54:53.994Z,61.81
2022-11-16T13:57:29.789Z,61.86
2022-11-16T14:00:02.467Z,62.00
2022-11-16T14:02:35.973Z,61.86
2022-11-16T14:05:11.649Z,61.53
2022-11-16T14:07:42.440Z,61.28
2022-11-16T14:10:37.887Z,61.61
2022-11-16T14:13:05.940Z,61.82
2022-11-16T14:15:35.185Z,61.87
2022-11-16T14:18:08.076Z,61.36
2022-11-16T14:20:43.713Z,61.05
2022-11-16T14:23:17.672Z,61.72
2022-11-16T14:26:02.315Z,61.96
2022-11-16T14:29:03.527Z,62.01
2022-11-16T14:31:55.599Z,62.35
2022-11-16T14:34:25.817Z,61.83
2022-11-16T14:36:52.535Z,61.73
2022-11-16T14:39:37.325Z,62.48
2022-11-16T14:42:06.887Z,62.91
2022-11-16T14:44:36.945Z,63.17
2022-11-16T14:47:03.518Z,63.77
2022-11-16T14:49:33.080Z,63.48
2022-11-16T14:52:00.166Z,63.85
2022-11-16T14:54:50.007Z,63.88
2022-11-16T14:57:21.899Z,63.32
2022-11-16T14:59:48.778Z,63.77
2022-11-16T15:02:25.175Z,63.56
2022-11-16T15:04:52.378Z,63.67
2022-11-16T15:07:21.687Z,63.82
2022-11-16T15:09:50.409Z,63.78
2022-11-16T15:12:41.591Z,64.08
2022-11-16T15:15:17.888Z,63.71
2022-11-16T15:17:48.209Z,64.00
2022-11-16T15:20:24.681Z,64.21
2022-11-16T15:22:53.776Z,64.33
2022-11-16T15:25:33.107Z,63.49
2022-11-16T15:28:04.469Z,63.58
2022-11-16T15:30:36.453Z,63.87
2022-11-16T15:33:09.195Z,64.22
2022-11-16T15:35:36.957Z,64.17
2022-11-16T15:38:24.682Z,64.29
2022-11-16T15:41:03.895Z,64.26
2022-11-16T15:44:01.336Z,64.16
2022-11-16T15:46:33.338Z,63.63
2022-11-16T15:48:59.990Z,63.40
2022-11-16T15:51:32.659Z,64.04
2022-11-16T15:54:14.550Z,63.93
2022-11-16T15:56:41.187Z,63.96
2022-11-16T15:59:13.251Z,64.14
2022-11-16T16:01:41.825Z,64.14
2022-11-16T16:04:09.912Z,63.96
2022-11-16T16:06:50.596Z,63.69
2022-11-16T16:09:30.521Z,63.68
2022-11-16T16:12:15.708Z,63.82
2022-11-16T16:14:42.531Z,63.90
2022-11-16T16:17:10.603Z,63.74
2022-11-16T16:19:44.751Z,64.74
2022-11-16T16:22:27.909Z,65.01
2022-11-16T16:24:54.783Z,65.31
2022-11-16T16:27:26.128Z,64.65
2022-11-16T16:29:54.708Z,64.49
2022-11-16T16:32:32.167Z,64.82
2022-11-16T16:35:00.992Z,64.91
2022-11-16T16:37:29.571Z,65.14
2022-11-16T16:39:56.675Z,65.34
2022-11-16T16:42:23.178Z,65.47
2022-11-16T16:44:49.998Z,65.12
2022-11-16T16:47:17.147Z,65.83
2022-11-16T16:49:43.904Z,66.02
2022-11-16T16:52:11.270Z,66.14
2022-11-16T16:54:37.961Z,66.30
2022-11-16T16:57:04.512Z,66.20
2022-11-16T16:59:31.150Z,65.84
2022-11-16T17:01:58.101Z,66.07
2022-11-16T17:04:24.720Z,65.75
2022-11-16T17:06:52.017Z,65.89
2022-11-16T17:09:19.089Z,66.95
2022-11-16T17:11:46.728Z,67.92
2022-11-16T17:14:13.309Z,66.97
2022-11-16T17:16:39.736Z,67.22
2022-11-16T17:19:06.260Z,66.66
2022-11-16T17:21:32.769Z,66.05
2022-11-16T17:23:59.424Z,66.14
2022-11-16T17:26:28.963Z,66.29
2022-11-16T17:28:57.080Z,65.60
2022-11-16T17:31:24.775Z,66.23
2022-11-16T17:33:51.757Z,65.39
2022-11-16T17:36:18.536Z,65.21
2022-11-16T17:38:44.966Z,65.33
2022-11-16T17:41:14.009Z,65.58
2022-11-16T17:43:42.486Z,65.12
2022-11-16T17:46:14.390Z,64.85
2022-11-16T17:48:42.725Z,64.75
2022-11-16T17:51:10.945Z,64.66
2022-11-16T17:53:39.462Z,64.70
2022-11-16T17:56:06.920Z,64.97
2022-11-16T17:58:33.620Z,64.53
2022-11-16T18:01:00.156Z,64.60
2022-11-16T18:03:28.177Z,64.87
2022-11-16T18:06:10.585Z,64.95
2022-11-16T18:08:37.425Z,65.08
2022-11-16T18:11:09.182Z,65.65
2022-11-16T18:13:36.291Z,65.52
2022-11-16T18:16:09.876Z,65.33
2022-11-16T18:18:37.774Z,65.33
2022-11-16T18:21:05.475Z,65.23
2022-11-16T18:23:33.314Z,65.90
2022-11-16T18:26:00.330Z,65.81
2022-11-16T18:28:26.907Z,65.45
2022-11-16T18:31:04.911Z,65.31
2022-11-16T18:33:32.160Z,65.28
2022-11-16T18:35:59.110Z,65.00
2022-11-16T18:38:25.593Z,64.90
2022-11-16T18:41:25.249Z,65.06
2022-11-16T18:43:59.875Z,64.48
2022-11-16T18:46:31.013Z,65.03
2022-11-16T18:48:58.068Z,65.57
2022-11-16T18:51:26.538Z,65.23
2022-11-16T18:53:53.280Z,65.13
2022-11-16T18:56:20.239Z,64.52
2022-11-16T18:58:51.951Z,64.24
2022-11-16T19:01:22.157Z,64.70
2022-11-16T19:03:49.821Z,64.58
2022-11-16T19:06:17.058Z,65.27
2022-11-16T19:08:43.679Z,65.64
2022-11-16T19:11:12.537Z,65.84
2022-11-16T19:13:40.096Z,65.54
2022-11-16T19:16:08.062Z,65.39
2022-11-16T19:18:37.872Z,66.35
2022-11-16T19:21:09.331Z,66.66
2022-11-16T19:23:37.780Z,66.09
2022-11-16T19:26:04.588Z,65.94
2022-11-16T19:28:35.845Z,65.41
2022-11-16T19:31:23.825Z,65.22
2022-11-16T19:33:57.784Z,65.16
2022-11-16T19:36:24.897Z,65.28
2022-11-16T19:38:51.621Z,65.02
2022-11-16T19:41:20.700Z,64.83
2022-11-16T19:43:48.357Z,64.90
2022-11-16T19:46:20.816Z,65.15
2022-11-16T19:48:48.714Z,64.72
2022-11-16T19:51:19.710Z,64.80
2022-11-16T19:53:46.691Z,65.18
2022-11-16T19:56:15.484Z,65.38
2022-11-16T19:58:42.530Z,65.39
2022-11-16T20:01:14.030Z,65.63
2022-11-16T20:03:41.570Z,65.57
2022-11-16T20:06:19.439Z,64.69
2022-11-16T20:08:48.293Z,65.27
2022-11-16T20:11:17.704Z,66.20
2022-11-16T20:13:44.267Z,66.43
2022-11-16T20:16:11.675Z,65.68
2022-11-16T20:18:39.284Z,64.71
2022-11-16T20:21:06.548Z,65.32
2022-11-16T20:23:34.316Z,65.70
2022-11-16T20:26:08.549Z,65.35
2022-11-16T20:28:40.572Z,64.73
2022-11-16T20:31:10.241Z,64.69
2022-11-16T20:33:37.060Z,64.71
2022-11-16T20:36:09.806Z,64.88
2022-11-16T20:38:37.768Z,64.95
2022-11-16T20:41:18.028Z,65.26
2022-11-16T20:43:45.407Z,64.99
2022-11-16T20:46:14.168Z,65.05
2022-11-16T20:48:41.765Z,65.36
2022-11-16T20:51:10.025Z,65.30
2022-11-16T20:53:37.031Z,65.32
2022-11-16T20:56:05.292Z,65.23
2022-11-16T20:58:31.860Z,65.02
2022-11-16T21:01:07.112Z,64.83
2022-11-16T21:03:34.069Z,64.95
2022-11-16T21:06:01.494Z,64.51
2022-11-16T21:08:30.690Z,64.96
2022-11-16T21:10:57.712Z,64.54
2022-11-16T21:13:43.688Z,64.97
2022-11-16T21:16:11.697Z,65.06
2022-11-16T21:18:39.358Z,64.58
2022-11-16T21:21:12.629Z,64.82
2022-11-16T21:23:42.524Z,65.00
2022-11-16T21:26:13.540Z,65.24
2022-11-16T21:28:40.952Z,65.18
2022-11-16T21:31:10.371Z,64.77
2022-11-16T21:33:37.290Z,64.75
2022-11-16T21:36:05.806Z,65.10
2022-11-16T21:38:32.933Z,64.94
2022-11-16T21:41:00.134Z,65.04
2022-11-16T21:43:27.281Z,64.85
2022-11-16T21:45:53.725Z,64.78
2022-11-16T21:48:20.116Z,64.92
2022-11-16T21:50:46.630Z,65.42
2022-11-16T21:53:13.263Z,65.88
2022-11-16T21:55:39.901Z,65.78
2022-11-16T21:58:06.621Z,65.49
2022-11-16T22:00:33.276Z,64.93
2022-11-16T22:02:59.781Z,64.47
2022-11-16T22:05:44.881Z,64.93
2022-11-16T22:08:11.833Z,64.93
2022-11-16T22:10:38.359Z,65.01
2022-11-16T22:13:05.199Z,64.89
2022-11-16T22:15:31.734Z,64.67
2022-11-16T22:17:58.270Z,64.81
2022-11-16T22:20:24.738Z,65.01
2022-11-16T22:22:51.234Z,65.23
2022-11-16T22:25:18.079Z,65.18
2022-11-16T22:28:13.799Z,65.06
2022-11-16T22:30:34.185Z,65.02
2022-11-16T22:33:00.725Z,65.22
2022-11-16T22:35:27.252Z,65.52
2022-11-16T22:37:53.762Z,65.23
2022-11-16T22:40:20.425Z,65.62
2022-11-16T22:42:46.856Z,65.61
2022-11-16T22:45:13.495Z,65.96
2022-11-16T22:47:39.986Z,65.63
2022-11-16T22:50:06.695Z,65.38
2022-11-16T22:52:33.154Z,65.11
2022-11-16T22:54:59.836Z,65.06
2022-11-16T22:57:26.268Z,65.07
2022-11-16T22:59:53.013Z,65.06
2022-11-16T23:02:19.747Z,64.89
2022-11-16T23:04:46.148Z,64.90
2022-11-16T23:07:12.678Z,64.61
2022-11-16T23:09:39.165Z,64.81
2022-11-16T23:12:24.107Z,64.95
2022-11-16T23:15:09.490Z,65.66
2022-11-16T23:17:35.931Z,66.53
2022-11-16T23:20:21.753Z,67.25
2022-11-16T23:23:06.673Z,66.60
2022-11-16T23:25:52.252Z,65.74
2022-11-16T23:28:18.785Z,64.81
2022-11-16T23:30:45.321Z,65.38
2022-11-16T23:33:11.792Z,65.33
2022-11-16T23:35:38.219Z,65.41
2022-11-16T23:38:05.848Z,65.72
2022-11-16T23:40:37.910Z,66.17
2022-11-16T23:43:24.207Z,65.57
2022-11-16T23:45:50.843Z,65.16
2022-11-16T23:48:17.829Z,65.58
2022-11-16T23:50:44.938Z,65.31
2022-11-16T23:53:12.089Z,65.15
2022-11-16T23:55:38.844Z,64.62
2022-11-16T23:58:06.383Z,64.88
